Time;durP1;ratioP1;P1;durP2;ratioP2;P2;SDS_P1;SDS_P2;PMS_P1;PMS_P2;Temp;Humidity;BMP_temperature;BMP_pressure;BME280_temperature;BME280_humidity;BME280_pressure;Samples;Min_cycle;Max_cycle;Signal;HPM_P1;HPM_P2
2023/12/17 00:01:09;;;;;;;22.88;14.13;;;;;;;8.72;100.00;102859.75;5002147;28;20041;-82
2023/12/17 00:03:36;;;;;;;22.10;13.85;;;;;;;8.73;100.00;102858.88;5030495;28;20414;-81
2023/12/17 00:06:12;;;;;;;;;;;;;;;;;;;;;
2023/12/17 00:08:39;;;;;;;20.60;13.10;;;;;;;8.72;100.00;102858.84;5027955;28;20041;-80
2023/12/17 00:11:09;;;;;;;18.35;12.52;;;;;;;8.76;100.00;102864.22;5022547;28;20508;-81
2023/12/17 00:13:37;;;;;;;19.77;13.43;;;;;;;8.75;100.00;102858.97;5026426;28;20132;-81
2023/12/17 00:16:06;;;;;;;18.85;13.30;;;;;;;8.71;100.00;102871.03;5020581;28;20045;-81
2023/12/17 00:18:34;;;;;;;19.10;13.95;;;;;;;8.72;100.00;102854.53;5017073;28;20054;-81
2023/12/17 00:21:00;;;;;;;19.60;13.40;;;;;;;8.73;100.00;102858.00;5032862;28;20406;-81
2023/12/17 00:23:28;;;;;;;19.02;13.50;;;;;;;8.73;100.00;102850.19;5031895;28;20047;-82
2023/12/17 00:25:54;;;;;;;20.35;13.25;;;;;;;8.71;100.00;102852.75;5028279;28;20051;-82
2023/12/17 00:28:23;;;;;;;18.45;13.15;;;;;;;8.74;100.00;102846.75;5038571;28;20056;-80
2023/12/17 00:30:54;;;;;;;20.27;14.18;;;;;;;8.72;100.00;102849.31;5035563;28;20038;-83
2023/12/17 00:33:21;;;;;;;16.58;11.98;;;;;;;8.70;100.00;102850.09;5026980;28;20099;-82
2023/12/17 00:35:47;;;;;;;19.23;13.43;;;;;;;8.73;100.00;102838.00;5029965;28;20057;-81
2023/12/17 00:38:17;;;;;;;17.00;12.23;;;;;;;8.77;100.00;102850.34;5035377;28;20405;-83
2023/12/17 00:40:43;;;;;;;16.48;11.73;;;;;;;8.75;100.00;102851.13;5036346;28;20034;-82
2023/12/17 00:43:10;;;;;;;20.13;12.35;;;;;;;8.76;100.00;102853.78;5029542;28;20058;-81
2023/12/17 00:45:40;;;;;;;19.02;13.05;;;;;;;8.76;100.00;102853.78;5009055;28;20072;-82
2023/12/17 00:48:06;;;;;;;16.90;11.57;;;;;;;8.75;100.00;102859.84;5024711;28;20049;-82
2023/12/17 00:50:34;;;;;;;16.98;11.23;;;;;;;8.79;100.00;102853.00;5011556;28;20107;-81
2023/12/17 00:53:01;;;;;;;18.15;10.93;;;;;;;8.82;100.00;102857.44;5006461;28;20132;-82
2023/12/17 00:55:28;;;;;;;14.38;9.63;;;;;;;8.81;100.00;102853.94;5034647;28;20053;-81
2023/12/17 00:57:56;;;;;;;14.15;10.10;;;;;;;8.83;100.00;102843.56;5027990;28;20045;-81
2023/12/17 01:00:26;;;;;;;16.73;9.45;;;;;;;8.80;100.00;102836.50;5024664;28;20080;-81
2023/12/17 01:02:55;;;;;;;14.68;9.50;;;;;;;8.82;100.00;102850.47;5012844;28;20148;-80
2023/12/17 01:05:22;;;;;;;12.38;9.10;;;;;;;8.81;100.00;102838.25;5013138;28;20075;-82
2023/12/17 01:07:48;;;;;;;13.63;9.45;;;;;;;8.81;100.00;102835.66;5033286;28;20124;-81
2023/12/17 01:10:19;;;;;;;12.32;8.48;;;;;;;8.83;100.00;102830.50;5028252;28;20042;-83
2023/12/17 01:12:57;;;;;;;11.82;8.73;;;;;;;8.83;100.00;102828.75;5008075;28;20072;-84
2023/12/17 01:15:27;;;;;;;11.13;8.00;;;;;;;8.84;100.00;102834.84;5014939;28;20045;-82
2023/12/17 01:17:54;;;;;;;12.52;8.43;;;;;;;8.82;100.00;102841.78;5007613;28;20050;-82
2023/12/17 01:20:20;;;;;;;12.30;9.02;;;;;;;8.82;100.00;102841.78;5023157;28;20049;-84
2023/12/17 01:22:48;;;;;;;11.38;8.43;;;;;;;8.80;100.00;102838.22;5025332;28;20129;-81
2023/12/17 01:25:15;;;;;;;12.90;9.20;;;;;;;8.81;100.00;102834.78;5008078;28;20044;-80
2023/12/17 01:27:41;;;;;;;10.63;7.68;;;;;;;8.83;100.00;102815.69;5006224;28;20033;-80
2023/12/17 01:30:08;;;;;;;11.05;8.23;;;;;;;8.75;100.00;102812.84;5004781;28;20041;-80
2023/12/17 01:32:35;;;;;;;11.57;7.68;;;;;;;8.81;100.00;102817.38;5016615;28;20068;-80
2023/12/17 01:35:04;;;;;;;10.95;7.07;;;;;;;8.84;100.00;102809.66;5015379;28;20056;-82
2023/12/17 01:37:31;;;;;;;11.18;6.93;;;;;;;8.81;100.00;102809.53;5015546;28;20053;-82
2023/12/17 01:39:58;;;;;;;10.25;6.50;;;;;;;8.76;100.00;102801.56;5022040;28;20049;-80
2023/12/17 01:42:24;;;;;;;9.48;6.75;;;;;;;8.80;100.00;102806.88;5018822;28;20038;-80
2023/12/17 01:44:51;;;;;;;8.63;6.25;;;;;;;8.84;100.00;102808.75;5016536;28;20521;-80
2023/12/17 01:47:17;;;;;;;8.07;6.35;;;;;;;8.81;100.00;102808.66;5001262;28;20084;-82
2023/12/17 01:49:44;;;;;;;10.40;6.88;;;;;;;8.82;100.00;102798.25;5022028;28;20107;-82
2023/12/17 01:52:10;;;;;;;11.55;6.85;;;;;;;8.83;100.00;102802.66;5017841;28;20048;-82
2023/12/17 01:54:37;;;;;;;8.60;6.70;;;;;;;8.83;100.00;102804.38;4998367;28;20957;-82
2023/12/17 01:57:11;;;;;;;8.13;5.45;;;;;;;8.86;100.00;102815.78;5000743;28;20041;-82
2023/12/17 01:59:38;;;;;;;5.75;5.05;;;;;;;8.87;100.00;102821.91;5015812;28;20522;-82
2023/12/17 02:02:04;;;;;;;5.97;5.05;;;;;;;8.94;100.00;102816.97;5009517;28;20049;-83
2023/12/17 02:04:32;;;;;;;6.63;5.45;;;;;;;8.98;100.00;102819.66;5020147;28;20385;-80
2023/12/17 02:06:59;;;;;;;7.13;5.07;;;;;;;8.99;100.00;102814.47;5006180;28;20045;-82
2023/12/17 02:09:25;;;;;;;7.10;5.78;;;;;;;8.96;100.00;102805.63;5003863;28;20597;-82
2023/12/17 02:11:53;;;;;;;5.88;5.28;;;;;;;8.94;100.00;102810.81;5004265;28;20400;-82
2023/12/17 02:14:20;;;;;;;7.63;5.45;;;;;;;8.90;100.00;102799.41;5004180;28;20052;-83
2023/12/17 02:16:46;;;;;;;6.22;5.03;;;;;;;8.98;100.00;102794.41;5009246;28;20053;-81
2023/12/17 02:19:13;;;;;;;6.00;4.80;;;;;;;9.00;100.00;102800.56;5020014;28;20111;-82
2023/12/17 02:21:40;;;;;;;7.30;4.82;;;;;;;8.93;100.00;102789.06;5016172;28;20038;-81
2023/12/17 02:24:15;;;;;;;8.18;6.00;;;;;;;9.02;100.00;102806.75;5019608;28;20055;-84
2023/12/17 02:26:43;;;;;;;6.75;5.80;;;;;;;9.03;100.00;102805.00;5022865;28;20060;-81
2023/12/17 02:29:10;;;;;;;6.38;5.18;;;;;;;9.04;100.00;102810.28;5002469;28;20063;-82
2023/12/17 02:31:37;;;;;;;7.53;5.50;;;;;;;9.01;100.00;102809.28;5019996;28;20045;-80
2023/12/17 02:34:03;;;;;;;6.45;5.07;;;;;;;9.00;100.00;102803.19;5020527;28;20049;-82
2023/12/17 02:36:30;;;;;;;5.72;5.05;;;;;;;9.01;100.00;102798.84;4999011;28;20049;-81
2023/12/17 02:38:56;;;;;;;6.55;4.97;;;;;;;8.96;100.00;102803.03;5020839;28;20045;-83
2023/12/17 02:41:23;;;;;;;5.57;4.72;;;;;;;9.02;100.00;102804.16;5019131;28;20919;-83
2023/12/17 02:43:52;;;;;;;6.97;5.00;;;;;;;9.05;100.00;102811.19;5017140;28;20060;-81
2023/12/17 02:46:19;;;;;;;6.65;5.35;;;;;;;9.05;100.00;102811.19;5015966;28;20060;-83
2023/12/17 02:48:46;;;;;;;7.03;5.63;;;;;;;8.98;100.00;102804.84;5001520;28;20127;-82
2023/12/17 02:51:14;;;;;;;8.23;4.95;;;;;;;9.02;100.00;102814.59;5021467;28;20049;-81
2023/12/17 02:53:41;;;;;;;8.20;5.95;;;;;;;9.09;100.00;102818.28;4998854;28;20074;-80
2023/12/17 02:56:08;;;;;;;7.15;4.90;;;;;;;9.06;100.00;102811.22;5016950;28;20049;-80
2023/12/17 02:58:40;;;;;;;5.20;4.70;;;;;;;9.07;100.00;102814.72;5004031;28;20141;-81
2023/12/17 03:01:06;;;;;;;7.93;5.55;;;;;;;9.08;100.00;102816.50;5021552;28;20045;-81
2023/12/17 03:03:33;;;;;;;7.10;5.10;;;;;;;9.07;100.00;102818.25;4999224;28;20068;-81
2023/12/17 03:05:59;;;;;;;7.57;5.78;;;;;;;9.04;100.00;102807.66;5005885;28;20137;-83
2023/12/17 03:08:26;;;;;;;7.25;5.97;;;;;;;9.05;100.00;102803.34;5016038;28;20049;-81
2023/12/17 03:10:52;;;;;;;7.43;5.63;;;;;;;9.08;100.00;102795.59;5018942;28;20053;-82
2023/12/17 03:13:19;;;;;;;6.97;6.25;;;;;;;9.05;100.00;102785.94;5016371;28;20049;-82
2023/12/17 03:15:46;;;;;;;8.43;6.22;;;;;;;9.05;100.00;102793.78;5020629;28;20041;-81
2023/12/17 03:18:12;;;;;;;8.13;6.18;;;;;;;9.03;100.00;102792.81;5002299;28;20053;-83
2023/12/17 03:20:39;;;;;;;8.43;7.32;;;;;;;9.05;100.00;102785.94;5015023;28;20061;-82
2023/12/17 03:23:06;;;;;;;8.48;6.03;;;;;;;9.08;100.00;102798.22;5016503;28;20152;-81
2023/12/17 03:25:32;;;;;;;7.50;6.15;;;;;;;9.07;100.00;102789.50;5001634;28;20052;-82
2023/12/17 03:27:59;;;;;;;10.10;6.63;;;;;;;9.06;100.00;102795.56;5004222;28;20053;-82
2023/12/17 03:30:25;;;;;;;8.30;6.13;;;;;;;9.09;100.00;102792.16;5016029;28;20037;-81
2023/12/17 03:32:52;;;;;;;10.15;6.60;;;;;;;9.06;100.00;102786.81;5001643;28;20079;-81
2023/12/17 03:35:19;;;;;;;7.78;6.50;;;;;;;9.06;100.00;102787.72;5002890;28;20069;-81
2023/12/17 03:37:47;;;;;;;8.95;6.55;;;;;;;9.01;100.00;102765.78;5014501;28;20088;-82
2023/12/17 03:40:14;;;;;;;7.93;6.25;;;;;;;9.01;100.00;102765.78;5006089;28;20042;-82
2023/12/17 03:42:40;;;;;;;9.45;6.25;;;;;;;9.04;100.00;102751.94;5003001;28;20788;-80
2023/12/17 03:45:08;;;;;;;7.05;5.95;;;;;;;9.10;100.00;102747.78;5017171;28;20841;-81
2023/12/17 03:47:34;;;;;;;8.23;7.30;;;;;;;9.07;100.00;102742.47;5017834;28;20121;-81
2023/12/17 03:50:01;;;;;;;9.82;5.97;;;;;;;9.07;100.00;102752.00;5005115;28;20141;-81
2023/12/17 03:52:27;;;;;;;8.55;6.95;;;;;;;9.07;100.00;102752.91;5020489;28;20038;-82
2023/12/17 03:54:54;;;;;;;12.43;7.78;;;;;;;9.07;100.00;102768.59;4984118;28;20435;-81
2023/12/17 03:57:20;;;;;;;9.43;6.57;;;;;;;9.09;100.00;102759.06;5006298;28;20056;-82
2023/12/17 03:59:47;;;;;;;7.30;6.15;;;;;;;9.12;100.00;102760.88;5022543;28;20405;-80
2023/12/17 04:02:13;;;;;;;8.55;6.35;;;;;;;9.05;100.00;102770.25;5023614;28;20042;-79
2023/12/17 04:04:40;;;;;;;8.80;6.88;;;;;;;9.11;100.00;102769.56;5022355;28;20144;-82
2023/12/17 04:07:06;;;;;;;10.07;7.25;;;;;;;9.07;100.00;102763.38;5019521;28;20410;-80
2023/12/17 04:09:33;;;;;;;9.25;6.63;;;;;;;9.10;100.00;102766.06;5021514;28;20389;-82
2023/12/17 04:11:59;;;;;;;9.02;6.97;;;;;;;9.12;100.00;102760.88;5020300;28;20620;-81
2023/12/17 04:14:26;;;;;;;9.40;7.40;;;;;;;9.11;100.00;102756.50;5024189;28;20045;-82
2023/12/17 04:16:52;;;;;;;9.25;6.97;;;;;;;9.09;100.00;102747.75;5023102;28;20046;-82
2023/12/17 04:19:19;;;;;;;7.05;6.35;;;;;;;9.13;100.00;102753.97;5005327;28;20536;-83
2023/12/17 04:21:45;;;;;;;7.47;6.70;;;;;;;9.09;100.00;102753.84;5021106;28;20132;-80
2023/12/17 04:24:12;;;;;;;8.90;6.68;;;;;;;9.07;100.00;102755.53;5019674;28;20064;-82
2023/12/17 04:26:38;;;;;;;9.75;6.68;;;;;;;9.08;100.00;102748.56;5025083;28;20534;-81
2023/12/17 04:29:05;;;;;;;8.15;6.05;;;;;;;9.04;100.00;102734.53;5021970;28;20463;-80
2023/12/17 04:31:31;;;;;;;8.50;7.00;;;;;;;9.07;100.00;102744.19;5022178;28;20130;-83
2023/12/17 04:33:58;;;;;;;7.13;6.10;;;;;;;9.07;100.00;102739.88;5006839;28;20049;-81
2023/12/17 04:36:25;;;;;;;8.18;6.18;;;;;;;9.10;100.00;102747.78;5021771;28;20061;-80
2023/12/17 04:38:52;;;;;;;7.53;6.15;;;;;;;9.13;100.00;102746.13;5024241;28;20060;-81
2023/12/17 04:41:18;;;;;;;6.88;5.95;;;;;;;9.10;100.00;102745.16;5025840;28;20065;-80
2023/12/17 04:43:45;;;;;;;9.90;6.03;;;;;;;9.12;100.00;102741.72;5004386;28;20052;-80
2023/12/17 04:46:12;;;;;;;8.07;6.53;;;;;;;9.10;100.00;102739.94;5005957;28;20533;-80
2023/12/17 04:48:38;;;;;;;7.13;6.30;;;;;;;9.13;100.00;102733.91;5021854;28;20076;-81
2023/12/17 04:51:06;;;;;;;7.40;6.63;;;;;;;9.14;100.00;102724.34;5004882;28;20120;-83
2023/12/17 04:53:32;;;;;;;7.15;5.45;;;;;;;9.16;100.00;102727.91;5002957;28;20045;-81
2023/12/17 04:55:58;;;;;;;11.43;6.65;;;;;;;9.13;100.00;102739.16;5003159;28;20140;-80
2023/12/17 04:58:26;;;;;;;9.27;6.65;;;;;;;9.16;100.00;102743.59;5007856;28;20054;-82
2023/12/17 05:00:52;;;;;;;8.18;6.57;;;;;;;9.14;100.00;102748.78;5001273;28;20892;-81
2023/12/17 05:03:19;;;;;;;10.57;6.75;;;;;;;9.07;100.00;102741.56;5005099;28;20049;-82
2023/12/17 05:05:45;;;;;;;8.00;6.35;;;;;;;9.08;100.00;102751.19;5019934;28;20050;-82
2023/12/17 05:08:13;;;;;;;7.47;6.55;;;;;;;9.09;100.00;102745.13;5038757;28;20551;-82
2023/12/17 05:10:41;;;;;;;8.38;6.18;;;;;;;9.10;100.00;102747.78;5013846;28;20044;-81
2023/12/17 05:13:08;;;;;;;9.27;6.93;;;;;;;9.06;100.00;102745.00;5020403;28;20137;-82
2023/12/17 05:15:34;;;;;;;9.30;7.05;;;;;;;9.09;100.00;102751.22;5019958;28;20072;-83
2023/12/17 05:18:01;;;;;;;9.57;7.07;;;;;;;9.06;100.00;102756.38;5002298;28;20080;-81
2023/12/17 05:20:28;;;;;;;10.23;7.05;;;;;;;9.05;100.00;102758.94;5002834;28;20395;-81
2023/12/17 05:22:55;;;;;;;11.75;7.78;;;;;;;9.09;100.00;102763.41;5005827;28;20124;-82
2023/12/17 05:25:22;;;;;;;8.75;7.78;;;;;;;9.07;100.00;102755.53;5004862;28;20053;-80
2023/12/17 05:27:49;;;;;;;9.82;7.03;;;;;;;9.06;100.00;102758.06;5017805;28;20815;-81
2023/12/17 05:30:16;;;;;;;11.77;6.75;;;;;;;9.06;100.00;102756.38;5010062;28;20053;-81
2023/12/17 05:32:42;;;;;;;8.75;7.15;;;;;;;9.10;100.00;102753.00;5018809;28;20149;-81
2023/12/17 05:35:11;;;;;;;7.65;6.35;;;;;;;9.10;100.00;102758.22;5007785;28;20463;-79
2023/12/17 05:37:40;;;;;;;11.05;7.40;;;;;;;9.04;100.00;102751.94;5021995;28;20069;-81
2023/12/17 05:40:11;;;;;;;9.10;7.80;;;;;;;9.04;100.00;102750.19;5024946;28;20075;-80
2023/12/17 05:42:38;;;;;;;9.20;7.05;;;;;;;9.08;100.00;102759.91;5017541;28;20045;-80
2023/12/17 05:45:07;;;;;;;8.30;7.43;;;;;;;9.07;100.00;102763.38;5023400;28;20061;-81
2023/12/17 05:47:35;;;;;;;10.18;8.07;;;;;;;9.09;100.00;102764.28;5038693;28;20512;-83
2023/12/17 05:50:04;;;;;;;9.25;7.15;;;;;;;9.05;100.00;102751.97;5014818;28;20115;-81
2023/12/17 05:52:33;;;;;;;10.20;7.22;;;;;;;9.08;100.00;102753.78;5032831;28;20053;-83
2023/12/17 05:55:00;;;;;;;9.75;7.60;;;;;;;9.08;100.00;102749.44;5019934;28;20754;-80
2023/12/17 05:57:28;;;;;;;9.93;6.82;;;;;;;9.09;100.00;102734.69;5031614;28;20125;-84
2023/12/17 05:59:55;;;;;;;11.82;7.90;;;;;;;9.05;100.00;102744.13;5039119;28;20040;-81
2023/12/17 06:02:23;;;;;;;9.77;7.72;;;;;;;9.01;100.00;102743.97;5034682;28;20402;-81
2023/12/17 06:04:58;;;;;;;11.05;8.10;;;;;;;9.05;100.00;102751.97;5037204;28;20047;-80
2023/12/17 06:07:27;;;;;;;10.98;8.30;;;;;;;9.02;100.00;102730.09;5017510;28;20046;-79
2023/12/17 06:09:53;;;;;;;13.68;8.52;;;;;;;9.04;100.00;102742.34;5008893;28;20045;-81
2023/12/17 06:12:20;;;;;;;9.85;7.38;;;;;;;9.02;100.00;102744.06;5009526;28;20130;-81
2023/12/17 06:14:47;;;;;;;11.43;6.90;;;;;;;9.03;100.00;102745.81;5021138;28;20505;-82
2023/12/17 06:17:13;;;;;;;10.23;7.38;;;;;;;9.01;100.00;102741.38;5004439;28;20056;-81
2023/12/17 06:19:40;;;;;;;9.82;7.30;;;;;;;9.02;100.00;102751.88;5009412;28;20134;-83
2023/12/17 06:22:11;;;;;;;12.10;7.95;;;;;;;9.04;100.00;102744.09;5005512;28;20077;-81
2023/12/17 06:24:38;;;;;;;11.90;7.68;;;;;;;9.00;100.00;102742.22;5005897;28;20096;-81
2023/12/17 06:27:05;;;;;;;9.43;7.95;;;;;;;9.03;100.00;102743.19;5008093;28;20073;-81
2023/12/17 06:29:32;;;;;;;12.38;8.20;;;;;;;9.01;100.00;102744.88;5005347;28;20161;-83
2023/12/17 06:32:01;;;;;;;10.23;7.53;;;;;;;8.99;100.00;102754.38;5025088;28;20045;-80
2023/12/17 06:34:28;;;;;;;11.27;8.27;;;;;;;8.95;100.00;102752.53;5021080;28;20514;-84
2023/12/17 06:36:54;;;;;;;12.68;8.50;;;;;;;8.95;100.00;102749.91;5021532;28;20131;-81
2023/12/17 06:39:21;;;;;;;13.77;9.70;;;;;;;8.96;100.00;102746.47;5026239;28;20087;-81
2023/12/17 06:41:51;;;;;;;12.40;9.82;;;;;;;8.96;100.00;102756.91;4999980;28;21041;-83
2023/12/17 06:44:18;;;;;;;11.20;9.45;;;;;;;8.94;100.00;102751.66;5034088;28;20041;-83
2023/12/17 06:46:49;;;;;;;13.35;10.15;;;;;;;8.94;100.00;102750.75;5018999;28;20552;-82
2023/12/17 06:49:17;;;;;;;14.52;10.80;;;;;;;8.98;100.00;102751.72;5019024;28;20092;-83
2023/12/17 06:51:44;;;;;;;16.05;10.80;;;;;;;8.92;100.00;102752.44;5019500;28;20167;-81
2023/12/17 06:54:21;;;;;;;13.65;9.85;;;;;;;8.90;100.00;102768.06;5013974;28;20116;-80
2023/12/17 06:56:51;;;;;;;12.93;9.68;;;;;;;8.88;100.00;102764.50;5009913;28;20056;-82
2023/12/17 06:59:19;;;;;;;14.90;11.38;;;;;;;8.92;100.00;102765.50;4999983;28;20056;-81
2023/12/17 07:01:45;;;;;;;16.25;11.30;;;;;;;8.85;100.00;102758.28;5008563;28;20049;-80
2023/12/17 07:04:12;;;;;;;15.18;10.55;;;;;;;8.92;100.00;102762.88;5011794;28;20048;-81
2023/12/17 07:06:38;;;;;;;15.50;11.82;;;;;;;8.84;100.00;102761.72;5009505;28;20045;-80
2023/12/17 07:09:05;;;;;;;14.57;11.35;;;;;;;8.88;100.00;102774.09;5005808;28;20041;-82
2023/12/17 07:11:31;;;;;;;15.13;11.23;;;;;;;8.89;100.00;102771.50;5001711;28;20045;-81
2023/12/17 07:13:58;;;;;;;14.70;10.82;;;;;;;8.90;100.00;102777.59;5007473;28;20135;-80
2023/12/17 07:16:28;;;;;;;16.42;12.52;;;;;;;8.87;100.00;102770.56;5007618;28;20072;-82
2023/12/17 07:19:00;;;;;;;15.60;11.35;;;;;;;8.84;100.00;102769.56;5020672;28;20413;-85
2023/12/17 07:21:26;;;;;;;18.15;12.55;;;;;;;8.82;100.00;102759.06;5021149;28;20438;-83
2023/12/17 07:23:56;;;;;;;17.98;12.75;;;;;;;8.81;100.00;102774.69;5001234;28;20798;-82
2023/12/17 07:26:22;;;;;;;17.13;12.98;;;;;;;8.86;100.00;102765.28;5008698;28;20041;-81
2023/12/17 07:28:49;;;;;;;15.70;11.93;;;;;;;8.87;100.00;102762.72;5024757;28;20076;-83
2023/12/17 07:31:15;;;;;;;17.88;12.52;;;;;;;8.85;100.00;102766.13;5006665;28;20124;-83
2023/12/17 07:33:42;;;;;;;19.02;13.23;;;;;;;8.83;100.00;102763.47;5006612;28;20053;-80
2023/12/17 07:36:09;;;;;;;17.90;11.82;;;;;;;8.85;100.00;102768.72;5018787;28;20038;-82
2023/12/17 07:38:36;;;;;;;15.00;11.45;;;;;;;8.82;100.00;102772.13;5028150;28;20052;-80
2023/12/17 07:41:02;;;;;;;15.98;11.77;;;;;;;8.84;100.00;102773.09;5006200;28;20049;-83
2023/12/17 07:43:34;;;;;;;15.55;11.60;;;;;;;8.87;100.00;102774.91;5009236;28;20041;-82
2023/12/17 07:46:00;;;;;;;18.42;12.75;;;;;;;8.90;100.00;102781.13;5006775;28;20054;-81
2023/12/17 07:48:27;;;;;;;15.20;10.98;;;;;;;8.86;100.00;102758.34;5027255;28;20828;-81
2023/12/17 07:50:54;;;;;;;17.27;13.18;;;;;;;8.88;100.00;102758.41;5005539;28;20064;-82
2023/12/17 07:53:21;;;;;;;16.25;12.23;;;;;;;8.82;100.00;102751.25;5024356;28;20049;-81
2023/12/17 07:55:48;;;;;;;17.30;12.07;;;;;;;8.83;100.00;102757.38;5006985;28;20056;-82
2023/12/17 07:58:15;;;;;;;18.02;11.30;;;;;;;8.87;100.00;102754.88;5023350;28;20490;-81
2023/12/17 08:00:45;;;;;;;14.60;11.63;;;;;;;8.86;100.00;102755.72;5012263;28;20046;-82
2023/12/17 08:03:12;;;;;;;16.55;11.13;;;;;;;8.85;100.00;102755.69;5018895;28;20111;-82
2023/12/17 08:05:38;;;;;;;18.15;11.20;;;;;;;8.87;100.00;102762.72;5003314;28;20045;-80
2023/12/17 08:08:05;;;;;;;16.70;10.50;;;;;;;8.88;100.00;102758.41;5024125;28;20059;-81
2023/12/17 08:10:34;;;;;;;15.15;11.55;;;;;;;8.83;100.00;102760.84;5020179;28;20089;-83
2023/12/17 08:13:01;;;;;;;14.27;10.60;;;;;;;8.88;100.00;102767.13;5007594;28;20057;-82
2023/12/17 08:15:27;;;;;;;14.30;10.98;;;;;;;8.92;100.00;102766.38;5002394;28;20136;-79
2023/12/17 08:17:55;;;;;;;16.88;12.00;;;;;;;8.92;100.00;102760.28;5025064;28;20053;-81
2023/12/17 08:20:21;;;;;;;13.60;10.27;;;;;;;8.97;100.00;102760.41;5010092;28;20045;-82
2023/12/17 08:22:48;;;;;;;13.90;10.95;;;;;;;8.98;100.00;102770.03;5007142;28;20524;-80
2023/12/17 08:25:14;;;;;;;17.20;12.00;;;;;;;8.91;100.00;102758.50;5007587;28;20092;-81
2023/12/17 08:27:41;;;;;;;15.60;10.80;;;;;;;8.87;100.00;102761.84;5010523;28;20049;-81
2023/12/17 08:30:10;;;;;;;16.15;11.15;;;;;;;8.86;100.00;102776.63;5027279;28;20092;-82
2023/12/17 08:32:36;;;;;;;16.23;11.18;;;;;;;8.88;100.00;102766.25;5007501;28;20550;-81
2023/12/17 08:35:03;;;;;;;15.65;11.43;;;;;;;8.91;100.00;102776.78;5021950;28;20054;-82
2023/12/17 08:37:30;;;;;;;13.77;10.80;;;;;;;8.89;100.00;102781.06;5023878;28;20859;-81
2023/12/17 08:39:57;;;;;;;14.07;11.18;;;;;;;8.98;100.00;102780.47;5007742;28;20136;-81
2023/12/17 08:42:24;;;;;;;13.88;10.38;;;;;;;8.93;100.00;102777.72;5025881;28;20518;-81
2023/12/17 08:44:50;;;;;;;13.73;9.70;;;;;;;8.95;100.00;102768.19;5005305;28;20057;-83
2023/12/17 08:47:17;;;;;;;14.50;10.23;;;;;;;8.97;100.00;102773.47;5027128;28;20056;-83
2023/12/17 08:49:47;;;;;;;16.33;9.40;;;;;;;9.03;100.00;102771.06;5023420;28;20069;-82
2023/12/17 08:52:14;;;;;;;15.18;10.70;;;;;;;8.97;100.00;102763.91;5008147;28;20588;-82
2023/12/17 08:54:41;;;;;;;14.20;9.75;;;;;;;8.97;100.00;102765.63;5004602;28;20042;-83
2023/12/17 08:57:08;;;;;;;17.60;11.55;;;;;;;8.99;100.00;102764.84;5023242;28;20789;-82
2023/12/17 08:59:35;;;;;;;15.18;11.07;;;;;;;8.98;100.00;102765.66;5008275;28;20057;-83
2023/12/17 09:02:01;;;;;;;15.90;11.43;;;;;;;9.03;100.00;102771.06;5006399;28;20049;-81
2023/12/17 09:04:28;;;;;;;15.65;10.23;;;;;;;9.07;100.00;102776.44;5026236;28;20041;-82
2023/12/17 09:06:54;;;;;;;15.98;10.85;;;;;;;9.04;100.00;102770.22;5020549;28;20117;-80
2023/12/17 09:09:21;;;;;;;14.88;10.55;;;;;;;9.12;100.00;102773.06;5023966;28;20045;-80
2023/12/17 09:11:47;;;;;;;14.48;10.20;;;;;;;9.05;100.00;102759.81;5023796;28;20060;-81
2023/12/17 09:14:14;;;;;;;15.52;10.65;;;;;;;9.14;100.00;102761.84;5021132;28;20156;-82
2023/12/17 09:16:41;;;;;;;14.48;10.93;;;;;;;9.20;100.00;102763.75;5007754;28;20046;-82
2023/12/17 09:19:07;;;;;;;15.85;10.60;;;;;;;9.16;100.00;102759.25;5021712;28;20048;-82
2023/12/17 09:21:37;;;;;;;17.83;11.23;;;;;;;9.21;100.00;102761.16;5019669;28;20088;-82
2023/12/17 09:24:04;;;;;;;15.15;10.77;;;;;;;9.29;100.00;102758.78;5007377;28;20038;-81
2023/12/17 09:26:31;;;;;;;14.85;10.48;;;;;;;9.32;100.00;102760.59;5007473;28;20052;-81
2023/12/17 09:28:57;;;;;;;16.52;10.93;;;;;;;9.30;100.00;102750.13;5005806;28;20107;-83
2023/12/17 09:31:24;;;;;;;20.10;10.57;;;;;;;9.34;100.00;102753.72;5019315;28;20758;-81
2023/12/17 09:33:50;;;;;;;14.13;10.23;;;;;;;9.36;100.00;102742.47;5004336;28;20050;-81
2023/12/17 09:36:17;;;;;;;11.93;9.30;;;;;;;9.40;100.00;102746.06;5020130;28;20529;-82
2023/12/17 09:38:44;;;;;;;15.02;10.50;;;;;;;9.44;100.00;102738.34;5024306;28;20045;-81
2023/12/17 09:41:10;;;;;;;15.02;9.75;;;;;;;9.50;100.00;102734.13;5021288;28;20129;-81
2023/12/17 09:43:40;;;;;;;14.55;9.80;;;;;;;9.52;100.00;102754.25;5003641;28;20116;-80
2023/12/17 09:46:06;;;;;;;13.77;9.43;;;;;;;9.49;100.00;102750.66;5005832;28;20057;-81
2023/12/17 09:48:36;;;;;;;13.73;10.63;;;;;;;9.42;100.00;102752.19;5024453;28;20049;-82
2023/12/17 09:51:10;;;;;;;15.70;10.70;;;;;;;9.48;100.00;102757.63;5009438;28;20060;-81
2023/12/17 09:53:37;;;;;;;16.25;10.55;;;;;;;9.41;100.00;102746.09;5004288;28;20091;-81
2023/12/17 09:56:24;;;;;;;13.48;9.93;;;;;;;9.46;100.00;102745.34;5030629;28;20111;-81
2023/12/17 09:58:51;;;;;;;16.33;10.40;;;;;;;9.36;100.00;102736.31;5025862;28;20132;-81
2023/12/17 10:01:17;;;;;;;16.20;11.50;;;;;;;9.41;100.00;102724.28;5004451;28;20097;-82
2023/12/17 10:03:44;;;;;;;17.02;10.85;;;;;;;9.46;100.00;102721.81;5020870;28;20081;-81
2023/12/17 10:06:10;;;;;;;14.85;10.00;;;;;;;9.50;100.00;102718.44;4997531;28;20521;-81
2023/12/17 10:08:37;;;;;;;15.02;10.25;;;;;;;9.53;100.00;102716.81;4998559;28;20065;-83
2023/12/17 10:11:05;;;;;;;17.60;11.63;;;;;;;9.55;100.00;102719.47;5014660;28;20049;-80
2023/12/17 10:13:31;;;;;;;16.75;11.63;;;;;;;9.55;100.00;102719.47;5004449;28;20041;-81
2023/12/17 10:15:58;;;;;;;14.15;9.98;;;;;;;9.55;100.00;102714.22;4999487;28;20046;-82
2023/12/17 10:18:24;;;;;;;13.88;9.52;;;;;;;9.52;100.00;102711.53;5007525;28;20045;-81
2023/12/17 10:20:51;;;;;;;14.10;10.00;;;;;;;9.58;100.00;102707.38;5004221;28;20115;-81
2023/12/17 10:23:18;;;;;;;17.33;9.82;;;;;;;9.63;100.00;102701.38;5024620;28;20045;-82
2023/12/17 10:25:45;;;;;;;16.23;9.85;;;;;;;9.65;100.00;102703.19;4996250;28;20050;-83
2023/12/17 10:28:13;;;;;;;13.23;10.10;;;;;;;9.64;100.00;102688.34;5008236;28;20077;-84
2023/12/17 10:30:42;;;;;;;16.55;10.65;;;;;;;9.68;100.00;102686.69;5021664;28;20052;-81
2023/12/17 10:33:10;;;;;;;17.13;11.13;;;;;;;9.71;100.00;102686.78;5020760;28;20088;-83
2023/12/17 10:35:41;;;;;;;14.82;10.43;;;;;;;9.80;100.00;102686.16;5022553;28;20132;-83
2023/12/17 10:38:09;;;;;;;12.98;8.85;;;;;;;9.74;100.00;102674.66;5027824;28;20064;-83
2023/12/17 10:40:39;;;;;;;12.23;8.88;;;;;;;9.82;100.00;102679.25;5005644;28;20049;-81
2023/12/17 10:43:09;;;;;;;13.63;9.88;;;;;;;9.91;100.00;102682.09;5026199;28;20046;-81
2023/12/17 10:45:36;;;;;;;12.98;9.23;;;;;;;9.85;100.00;102682.81;4985974;28;20503;-82
2023/12/17 10:48:03;;;;;;;16.33;9.18;;;;;;;9.94;100.00;102683.03;5023039;28;20057;-84
2023/12/17 10:50:30;;;;;;;11.20;8.07;;;;;;;10.04;100.00;102689.41;5014457;28;20055;-81
2023/12/17 10:52:57;;;;;;;9.93;7.90;;;;;;;10.06;100.00;102692.06;4999740;28;20056;-84
2023/12/17 10:55:23;;;;;;;12.25;8.15;;;;;;;9.97;100.00;102692.69;5015452;28;20495;-82
2023/12/17 10:58:01;;;;;;;10.27;6.95;;;;;;;10.05;100.00;102698.13;5000460;28;20056;-82
2023/12/17 11:00:30;;;;;;;7.97;6.03;;;;;;;9.99;100.00;102696.25;5004254;28;20060;-83
2023/12/17 11:03:01;;;;;;;9.90;6.82;;;;;;;10.04;100.00;102702.50;5001437;28;20049;-82
2023/12/17 11:05:27;;;;;;;8.90;7.15;;;;;;;10.10;100.00;102701.75;5004981;28;20124;-82
2023/12/17 11:07:54;;;;;;;8.18;6.18;;;;;;;10.02;100.00;102691.09;5004751;28;20426;-82
2023/12/17 11:10:21;;;;;;;8.50;6.35;;;;;;;9.93;100.00;102683.91;5005454;28;20148;-83
2023/12/17 11:12:47;;;;;;;7.90;6.25;;;;;;;9.92;100.00;102683.84;5004958;28;20057;-83
2023/12/17 11:15:14;;;;;;;8.30;5.75;;;;;;;9.97;100.00;102683.97;5006502;28;20072;-83
2023/12/17 11:17:42;;;;;;;6.93;5.25;;;;;;;9.98;100.00;102684.00;5022031;28;20123;-82
2023/12/17 11:20:09;;;;;;;7.72;5.13;;;;;;;9.88;100.00;102676.75;5020846;28;20050;-83